Terminal Aerodrome Forecast
Issued by NWS

Home | Current Version | Previous Version | Text Only | Print | Product List | Glossary On
Versions: 1 2 3 4 5 6 7 8 9 10 11 12 13 14 15
725
FTUS41 KBGM 011730
TAFELM
TAF
KELM 011730Z 0118/0218 23015G28KT P6SM SCT025 BKN040
      TEMPO 0122/0202 3SM SHRA BR OVC025
     FM020200 25020G35KT P6SM -SHRASN SCT025 OVC035
     FM021200 28016G29KT P6SM BKN040=

USA.gov is the U.S. government's official web portal to all federal, state and local government web resources and services.